WetterOnline ( https://www.wetteronline.de )

Wetter aktuell Berlin

Aktuelles Wetter: Berlin-Tempelhof (49m)

6-stündlich | Neueste Meldungen
Ortszeit Temperatur Wetter
Fr, 23.02. 19:00 7.0° C bedeckt
Fr, 23.02. 13:00 9.3° C bedeckt
Fr, 23.02. 7:00 8.1° C leicht bewölkt
Fr, 23.02. 1:00 10.7° C bewölkt
Do, 22.02. 19:00 10.6° C leichter Regen
Do, 22.02. 13:00 10.1° C Regen
Do, 22.02. 7:00 9.0° C leichter Regen
Do, 22.02. 1:00 8.5° C bewölkt
Ortszeit Temperatur Wetter
Fr, 23.02. 20:30 6.3° C bedeckt
Fr, 23.02. 20:20 6.3° C bedeckt
Fr, 23.02. 20:10 6.1° C bedeckt
Fr, 23.02. 20:00 6.1° C bedeckt
Fr, 23.02. 19:50 6.1° C bedeckt
Fr, 23.02. 19:40 6.7° C bedeckt
Fr, 23.02. 19:30 6.7° C bewölkt
Fr, 23.02. 19:00 7.0° C bedeckt
Fr, 23.02. 18:30 7.5° C bedeckt
Fr, 23.02. 18:00 7.8° C bedeckt
Fr, 23.02. 17:30 8.2° C bedeckt
Ortszeit Relative Feuchte Sichtweite
Fr, 23.02. 19:00 63% 60 km
Fr, 23.02. 13:00 51% 60 km
Fr, 23.02. 7:00 57% >70 km
Fr, 23.02. 1:00 85% >70 km
Do, 22.02. 19:00 87% 40 km
Do, 22.02. 13:00 90% 65 km
Do, 22.02. 7:00 78% 30 km
Do, 22.02. 1:00 70% 50 km
Ortszeit Relative Feuchte Sichtweite
Fr, 23.02. 20:30 67% 55 km
Fr, 23.02. 20:20 67% -
Fr, 23.02. 20:10 68% -
Fr, 23.02. 20:00 68% 55 km
Fr, 23.02. 19:50 68% -
Fr, 23.02. 19:40 65% -
Fr, 23.02. 19:30 64% 60 km
Fr, 23.02. 19:00 63% 60 km
Fr, 23.02. 18:30 60% >70 km
Fr, 23.02. 18:00 59% >70 km
Fr, 23.02. 17:30 58% >70 km
Ortszeit Niederschlagsmenge Niederschlagsart
Fr, 23.02. 19:00 0.0 l/m2 in 12 Std. -
Fr, 23.02. 13:00 0.0 l/m2 in 6 Std. -
Fr, 23.02. 7:00 2 l/m2 in 12 Std. -
Fr, 23.02. 1:00 2 l/m2 in 6 Std. Regen
Do, 22.02. 19:00 3 l/m2 in 12 Std. Regen
Do, 22.02. 13:00 3 l/m2 in 6 Std. Regen
Do, 22.02. 7:00 0.1 l/m2 in 12 Std. Regen
Do, 22.02. 1:00 0.0 l/m2 in 6 Std. -
Ortszeit Niederschlagsmenge Niederschlagsart
Fr, 23.02. 20:30 0.0 l/m2 in 30 Min -
Fr, 23.02. 20:20 keine Meldung -
Fr, 23.02. 20:10 keine Meldung -
Fr, 23.02. 20:00 0.0 l/m2 in 1 Std. -
Fr, 23.02. 19:50 keine Meldung -
Fr, 23.02. 19:40 keine Meldung -
Fr, 23.02. 19:30 0.0 l/m2 in 30 Min -
Fr, 23.02. 19:00 0.0 l/m2 in 1 Std. -
Fr, 23.02. 18:30 0.0 l/m2 in 30 Min -
Fr, 23.02. 18:00 0.0 l/m2 in 1 Std. -
Fr, 23.02. 17:30 0.0 l/m2 in 30 Min -
Ortszeit Stärke Spitze Richtung
km/h Bft. km/h Grad Sektor
Fr, 23.02. 19:00 7 2 37 150° SO
Fr, 23.02. 13:00 18 3 50 230° SW
Fr, 23.02. 7:00 24 4 57 260° W
Fr, 23.02. 1:00 18 3 40 180° S
Do, 22.02. 19:00 14 3 25 160° S
Do, 22.02. 13:00 14 3 25 210° SW
Do, 22.02. 7:00 15 3 46 200° S
Do, 22.02. 1:00 7 2 22 180° S
Ortszeit Stärke Spitze Richtung
km/h Bft. km/h Grad Sektor
Fr, 23.02. 20:30 11 2 14 160° S
Fr, 23.02. 20:20 11 2 - 160° S
Fr, 23.02. 20:10 9 2 - 150° SO
Fr, 23.02. 20:00 11 2 18 140° SO
Fr, 23.02. 19:50 11 2 - 140° SO
Fr, 23.02. 19:40 7 2 - 160° S
Fr, 23.02. 19:30 9 2 15 160° S
Fr, 23.02. 19:00 7 2 17 150° SO
Fr, 23.02. 18:30 7 2 14 170° S
Fr, 23.02. 18:00 9 2 19 180° S
Fr, 23.02. 17:30 11 2 19 180° S
Ortszeit Untergrenze Bedeckung Gattung
total tief tief mittel hoch
Fr, 23.02. 19:00 4800 m 8/8 8/8 - - -
Fr, 23.02. 13:00 4800 m 8/8 8/8 - - -
Fr, 23.02. 7:00 1500 m 5/8 1/8 - - -
Fr, 23.02. 1:00 3600 m 8/8 7/8 - - -
Do, 22.02. 19:00 1020 m 8/8 8/8 - - -
Do, 22.02. 13:00 330 m 8/8 8/8 - - -
Do, 22.02. 7:00 660 m 8/8 8/8 - - -
Do, 22.02. 1:00 2100 m 8/8 7/8 - - -
Ortszeit Bedeckungsgrad in Achtel und Wolkenuntergrenze
Fr, 23.02. 20:30 8(5100m) 8(7500m)
Fr, 23.02. 20:20 8(5100m) 8(7500m)
Fr, 23.02. 20:10 8
Fr, 23.02. 20:00 8(5100m) 8(7500m) 8(8400m)
Fr, 23.02. 19:50 8(5100m) 8(7500m) 8(8400m)
Fr, 23.02. 19:40 8
Fr, 23.02. 19:30 7(5100m)
Fr, 23.02. 19:00 8(4800m)
Fr, 23.02. 18:30 8(4800m)
Fr, 23.02. 18:00 8(4800m) 8(7800m)
Fr, 23.02. 17:30 8(4800m)
Ortszeit Luftdruck NN (hPa) Tendenz (hPa in 3 Std.)
Fr, 23.02. 19:00 999 + 0,8
Fr, 23.02. 13:00 998 + 1,3
Fr, 23.02. 7:00 993 + 4,7
Fr, 23.02. 1:00 985 - 0,9
Do, 22.02. 19:00 988 - 2,5
Do, 22.02. 13:00 994 - 2,4
Do, 22.02. 7:00 999 - 2,7
Do, 22.02. 1:00 1006 - 2,5
Ortszeit Luftdruck NN (hPa) Tendenz (hPa in 3 Std.)
Fr, 23.02. 20:30 1000 + 0,7
Fr, 23.02. 20:20 1000 keine Meldung
Fr, 23.02. 20:10 1000 keine Meldung
Fr, 23.02. 20:00 1000 + 0,5
Fr, 23.02. 19:50 1000 keine Meldung
Fr, 23.02. 19:40 1000 keine Meldung
Fr, 23.02. 19:30 1000 + 0,9
Fr, 23.02. 19:00 999 + 0,8
Fr, 23.02. 18:30 1000 + 1,3
Fr, 23.02. 18:00 999 + 0,8
Fr, 23.02. 17:30 999 + 0,6
Ortszeit Schneehöhe (cm)
Fr, 23.02. 19:00 0
Fr, 23.02. 13:00 0
Fr, 23.02. 7:00 0
Fr, 23.02. 1:00 0
Do, 22.02. 19:00 0
Do, 22.02. 13:00 0
Do, 22.02. 7:00 0
Do, 22.02. 1:00 0
Ortszeit Schneehöhe (cm)
Fr, 23.02. 20:30 0
Fr, 23.02. 20:20 0
Fr, 23.02. 20:10 -
Fr, 23.02. 20:00 0
Fr, 23.02. 19:50 0
Fr, 23.02. 19:40 -
Fr, 23.02. 19:30 0
Fr, 23.02. 19:00 0
Fr, 23.02. 18:30 0
Fr, 23.02. 18:00 0
Fr, 23.02. 17:30 0
Link zu dieser Seite / Seite empfehlen

Das Wetter in ...